createdAt,value
2017-12-24T00:00:11.441Z,22.33
2017-12-24T00:02:39.991Z,23.92
2017-12-24T00:05:07.963Z,27.73
2017-12-24T00:07:39.900Z,22.60
2017-12-24T00:10:10.394Z,25.67
2017-12-24T00:12:38.326Z,24.92
2017-12-24T00:15:06.113Z,25.27
2017-12-24T00:17:33.723Z,23.70
2017-12-24T00:20:01.484Z,30.42
2017-12-24T00:22:29.838Z,28.83
2017-12-24T00:24:57.449Z,27.55
2017-12-24T00:27:25.117Z,22.27
2017-12-24T00:29:52.722Z,24.30
2017-12-24T00:32:20.364Z,22.75
2017-12-24T00:34:48.781Z,23.83
2017-12-24T00:37:16.431Z,26.87
2017-12-24T00:39:44.026Z,28.87
2017-12-24T00:42:11.645Z,26.12
2017-12-24T00:44:40.062Z,22.23
2017-12-24T00:47:07.677Z,24.67
2017-12-24T00:49:35.264Z,28.50
2017-12-24T00:52:03.678Z,26.73
2017-12-24T00:54:31.459Z,21.15
2017-12-24T00:56:59.106Z,21.30
2017-12-24T00:59:26.699Z,20.95
2017-12-24T01:01:54.345Z,25.95
2017-12-24T01:04:21.961Z,27.02
2017-12-24T01:06:50.579Z,23.80
2017-12-24T01:09:18.164Z,22.02
2017-12-24T01:11:45.754Z,22.25
2017-12-24T01:14:13.386Z,23.90
2017-12-24T01:16:41.020Z,22.50
2017-12-24T01:19:09.425Z,18.62
2017-12-24T01:21:37.045Z,20.48
2017-12-24T01:24:04.672Z,21.95
2017-12-24T01:26:32.304Z,20.05
2017-12-24T01:28:59.977Z,22.90
2017-12-24T01:31:28.371Z,21.30
2017-12-24T01:33:56.759Z,23.77
2017-12-24T01:36:24.366Z,20.92
2017-12-24T01:38:53.975Z,21.23
2017-12-24T01:41:21.575Z,20.42
2017-12-24T01:43:49.212Z,24.33
2017-12-24T01:46:16.836Z,21.27
2017-12-24T01:48:44.494Z,18.52
2017-12-24T01:51:12.921Z,21.83
2017-12-24T01:53:40.509Z,24.30
2017-12-24T01:56:08.152Z,26.58
2017-12-24T01:58:35.806Z,23.30
2017-12-24T02:01:03.416Z,25.15
2017-12-24T02:03:31.062Z,27.95
2017-12-24T02:05:58.703Z,24.05
2017-12-24T02:08:26.359Z,21.87
2017-12-24T02:10:53.963Z,23.10
2017-12-24T02:13:21.611Z,20.05
2017-12-24T02:15:49.256Z,22.48
2017-12-24T02:18:16.886Z,20.88
2017-12-24T02:20:44.516Z,19.15
2017-12-24T02:23:12.166Z,19.73
2017-12-24T02:25:39.800Z,23.02
2017-12-24T02:28:07.424Z,20.55
2017-12-24T02:30:35.052Z,26.83
2017-12-24T02:33:02.652Z,23.38
2017-12-24T02:35:30.286Z,21.77
2017-12-24T02:37:57.905Z,26.80
2017-12-24T02:40:25.546Z,26.58
2017-12-24T02:42:53.174Z,29.30
2017-12-24T02:45:20.795Z,24.98
2017-12-24T02:47:48.405Z,28.02
2017-12-24T02:50:16.849Z,28.35
2017-12-24T02:52:44.494Z,23.20
2017-12-24T02:55:12.115Z,24.10
2017-12-24T02:57:40.517Z,30.05
2017-12-24T03:00:08.137Z,26.35
2017-12-24T03:02:35.785Z,26.40
2017-12-24T03:05:03.391Z,20.92
2017-12-24T03:07:31.754Z,24.25
2017-12-24T03:09:59.376Z,25.17
2017-12-24T03:12:27.002Z,24.42
2017-12-24T03:14:55.370Z,26.73
2017-12-24T03:17:22.979Z,21.70
2017-12-24T03:19:50.581Z,24.52
2017-12-24T03:22:18.201Z,23.20
2017-12-24T03:24:45.804Z,21.92
2017-12-24T03:27:13.416Z,22.95
2017-12-24T03:29:41.064Z,26.37
2017-12-24T03:32:08.724Z,25.67
2017-12-24T03:34:36.314Z,21.05
2017-12-24T03:37:03.901Z,26.35
2017-12-24T03:39:31.537Z,23.50
2017-12-24T03:41:59.126Z,19.45
2017-12-24T03:44:26.761Z,24.67
2017-12-24T03:46:54.435Z,20.12
2017-12-24T03:49:22.090Z,31.95
2017-12-24T03:51:49.739Z,24.12
2017-12-24T03:54:17.399Z,25.05
2017-12-24T03:56:45.015Z,28.48
2017-12-24T03:59:13.422Z,21.42
2017-12-24T04:01:41.076Z,24.50
2017-12-24T04:04:09.434Z,26.95
2017-12-24T04:06:37.083Z,23.40
2017-12-24T04:09:04.699Z,21.52
2017-12-24T04:11:32.318Z,26.37
2017-12-24T04:13:59.943Z,24.73
2017-12-24T04:16:27.559Z,22.10
2017-12-24T04:18:55.193Z,25.80
2017-12-24T04:21:22.822Z,23.67
2017-12-24T04:23:51.199Z,23.20
2017-12-24T04:26:19.602Z,24.08
2017-12-24T04:28:47.246Z,24.33
2017-12-24T04:31:14.880Z,26.65
2017-12-24T04:33:42.495Z,28.95
2017-12-24T04:36:10.400Z,26.20
2017-12-24T04:38:38.050Z,28.27
2017-12-24T04:41:05.733Z,27.27
2017-12-24T04:43:33.388Z,25.95
2017-12-24T04:46:01.034Z,26.95
2017-12-24T04:48:28.693Z,27.58
2017-12-24T04:50:57.066Z,29.42
2017-12-24T04:53:25.438Z,26.42
2017-12-24T04:55:53.066Z,29.17
2017-12-24T04:58:20.686Z,28.73
2017-12-24T05:00:49.082Z,26.12
2017-12-24T05:03:16.713Z,26.05
2017-12-24T05:05:44.345Z,25.30
2017-12-24T05:08:13.014Z,24.55
2017-12-24T05:10:40.636Z,21.52
2017-12-24T05:13:08.249Z,23.70
2017-12-24T05:15:35.870Z,20.60
2017-12-24T05:18:03.509Z,22.27
2017-12-24T05:20:31.130Z,25.73
2017-12-24T05:22:58.765Z,25.02
2017-12-24T05:25:26.396Z,23.10
2017-12-24T05:27:54.016Z,24.85
2017-12-24T05:30:22.425Z,25.05
2017-12-24T05:32:50.068Z,26.20
2017-12-24T05:35:18.465Z,26.40
2017-12-24T05:37:46.099Z,25.48
2017-12-24T05:40:13.879Z,24.65
2017-12-24T05:42:41.505Z,22.27
2017-12-24T05:45:09.150Z,20.65
2017-12-24T05:47:36.954Z,20.37
2017-12-24T05:50:04.588Z,24.00
2017-12-24T05:52:32.257Z,28.27
2017-12-24T05:54:59.883Z,24.30
2017-12-24T05:57:28.271Z,21.90
2017-12-24T05:59:55.923Z,26.95
2017-12-24T06:02:23.613Z,28.27
2017-12-24T06:04:51.980Z,25.10
2017-12-24T06:07:19.613Z,28.48
2017-12-24T06:09:47.258Z,41.28
2017-12-24T06:12:14.868Z,42.80
2017-12-24T06:14:42.512Z,48.80
2017-12-24T06:17:10.107Z,43.55
2017-12-24T06:19:38.521Z,48.05
2017-12-24T06:22:06.168Z,51.88
2017-12-24T06:24:34.594Z,72.55
2017-12-24T06:27:02.254Z,70.03
2017-12-24T06:29:29.887Z,76.55
2017-12-24T06:31:57.460Z,88.80
2017-12-24T06:34:25.869Z,75.82
2017-12-24T06:36:53.492Z,80.03
2017-12-24T06:39:21.118Z,58.38
2017-12-24T06:41:48.753Z,55.17
2017-12-24T06:44:16.372Z,46.17
2017-12-24T06:46:44.012Z,35.28
2017-12-24T06:49:11.668Z,31.45
2017-12-24T06:51:39.298Z,29.77
2017-12-24T06:54:07.681Z,33.58
2017-12-24T06:56:36.087Z,28.60
2017-12-24T06:59:04.470Z,29.75
2017-12-24T07:01:32.066Z,28.35
2017-12-24T07:03:59.692Z,31.70
2017-12-24T07:06:28.079Z,28.75
2017-12-24T07:08:56.452Z,33.13
2017-12-24T07:11:24.836Z,29.37
2017-12-24T07:13:53.246Z,35.45
2017-12-24T07:16:20.880Z,29.87
2017-12-24T07:18:48.510Z,21.67
2017-12-24T07:21:16.148Z,31.60
2017-12-24T07:23:43.794Z,32.70
2017-12-24T07:26:12.175Z,43.65
2017-12-24T07:28:40.826Z,33.00
2017-12-24T07:31:08.444Z,31.70
2017-12-24T07:33:36.080Z,33.80
2017-12-24T07:36:03.699Z,36.63
2017-12-24T07:38:31.292Z,30.67
2017-12-24T07:40:58.914Z,37.35
2017-12-24T07:43:26.542Z,40.55
2017-12-24T07:45:55.011Z,33.50
2017-12-24T07:48:22.599Z,38.22
2017-12-24T07:50:50.202Z,38.15
2017-12-24T07:53:17.838Z,33.47
2017-12-24T07:55:46.252Z,29.10
2017-12-24T07:58:13.899Z,25.08
2017-12-24T08:00:42.275Z,21.90
2017-12-24T08:03:10.646Z,24.98
2017-12-24T08:05:39.040Z,19.27
2017-12-24T08:08:06.678Z,21.30
2017-12-24T08:10:34.290Z,18.33
2017-12-24T08:13:01.925Z,18.08
2017-12-24T08:15:29.837Z,20.15
2017-12-24T08:17:57.473Z,18.92
2017-12-24T08:20:25.938Z,16.35
2017-12-24T08:22:54.407Z,15.38
2017-12-24T08:25:22.114Z,17.95
2017-12-24T08:27:50.148Z,15.88
2017-12-24T08:30:18.142Z,16.52
2017-12-24T08:32:47.326Z,13.90
2017-12-24T08:35:15.362Z,14.80
2017-12-24T08:37:42.981Z,16.08
2017-12-24T08:40:10.632Z,18.58
2017-12-24T08:42:38.285Z,16.40
2017-12-24T08:45:05.919Z,15.45
2017-12-24T08:47:33.640Z,17.48
2017-12-24T08:50:01.350Z,16.15
2017-12-24T08:52:29.756Z,16.37
2017-12-24T08:54:57.392Z,21.05
2017-12-24T08:57:25.791Z,17.15
2017-12-24T08:59:53.438Z,18.80
2017-12-24T09:02:21.821Z,16.73
2017-12-24T09:04:50.231Z,18.05
2017-12-24T09:07:17.841Z,18.10
2017-12-24T09:09:45.471Z,17.70
2017-12-24T09:12:13.073Z,16.35
2017-12-24T09:14:40.724Z,16.87
2017-12-24T09:17:08.320Z,17.00
2017-12-24T09:19:36.068Z,20.67
2017-12-24T09:22:03.658Z,16.83
2017-12-24T09:24:31.281Z,18.92
2017-12-24T09:26:59.677Z,18.83
2017-12-24T09:29:27.380Z,19.50
2017-12-24T09:31:55.772Z,17.30
2017-12-24T09:34:24.132Z,19.33
2017-12-24T09:36:51.764Z,18.02
2017-12-24T09:39:19.469Z,16.60
2017-12-24T09:41:48.397Z,16.55
2017-12-24T09:44:16.376Z,17.42
2017-12-24T09:46:44.011Z,16.25
2017-12-24T09:49:11.668Z,16.95
2017-12-24T09:51:39.259Z,15.20
2017-12-24T09:54:06.883Z,21.90
2017-12-24T09:56:34.486Z,19.00
2017-12-24T09:59:02.107Z,14.15
2017-12-24T10:01:29.716Z,17.73
2017-12-24T10:03:58.094Z,15.05
2017-12-24T10:06:26.520Z,13.68
2017-12-24T10:08:54.135Z,14.30
2017-12-24T10:11:21.741Z,14.65
2017-12-24T10:13:49.378Z,15.90
2017-12-24T10:16:17.775Z,15.70
2017-12-24T10:18:46.184Z,14.70
2017-12-24T10:21:13.846Z,12.35
2017-12-24T10:23:41.490Z,15.77
2017-12-24T10:26:09.931Z,17.20
2017-12-24T10:28:37.576Z,16.67
2017-12-24T10:31:05.209Z,13.18
2017-12-24T10:33:33.617Z,15.35
2017-12-24T10:36:02.047Z,12.75
2017-12-24T10:38:29.703Z,12.40
2017-12-24T10:40:57.329Z,14.07
2017-12-24T10:43:25.248Z,15.20
2017-12-24T10:45:53.867Z,12.50
2017-12-24T10:48:22.301Z,13.40
2017-12-24T10:50:50.028Z,12.40
2017-12-24T10:53:18.591Z,27.83
2017-12-24T10:55:47.008Z,15.30
2017-12-24T10:58:14.832Z,11.38
2017-12-24T11:00:43.924Z,12.73
2017-12-24T11:03:11.641Z,15.13
2017-12-24T11:05:39.295Z,11.27
2017-12-24T11:08:08.776Z,9.20
2017-12-24T11:10:37.488Z,13.95
2017-12-24T11:13:05.282Z,17.27
2017-12-24T11:15:32.898Z,14.43
2017-12-24T11:18:00.522Z,13.57
2017-12-24T11:20:28.374Z,12.23
2017-12-24T11:22:56.004Z,12.57
2017-12-24T11:25:23.803Z,12.05
2017-12-24T11:27:52.209Z,10.38
2017-12-24T11:30:19.852Z,13.32
2017-12-24T11:32:48.221Z,9.90
2017-12-24T11:35:15.902Z,11.43
2017-12-24T11:37:44.493Z,10.90
2017-12-24T11:40:12.198Z,10.05
2017-12-24T11:42:40.569Z,10.65
2017-12-24T11:45:09.379Z,13.75
2017-12-24T11:47:37.064Z,12.02
2017-12-24T11:50:04.891Z,9.77
2017-12-24T11:52:32.985Z,13.13
2017-12-24T11:55:00.749Z,13.68
2017-12-24T11:57:29.210Z,9.82
2017-12-24T11:59:57.050Z,10.85
2017-12-24T12:02:24.738Z,11.23
2017-12-24T12:04:53.313Z,9.07
2017-12-24T12:07:21.092Z,8.60
2017-12-24T12:09:49.666Z,6.68
2017-12-24T12:12:18.530Z,7.72
2017-12-24T12:14:46.583Z,9.50
2017-12-24T12:17:14.251Z,12.02
2017-12-24T12:19:42.216Z,6.65
2017-12-24T12:22:09.976Z,6.90
2017-12-24T12:24:38.360Z,8.07
2017-12-24T12:27:06.125Z,7.60
2017-12-24T12:29:34.381Z,6.65
2017-12-24T12:32:02.990Z,8.60
2017-12-24T12:34:31.456Z,6.57
2017-12-24T12:36:59.262Z,7.03
2017-12-24T12:39:27.014Z,9.03
2017-12-24T12:41:56.402Z,7.47
2017-12-24T12:44:25.018Z,7.10
2017-12-24T12:46:52.801Z,8.23
2017-12-24T12:49:20.528Z,9.43
2017-12-24T12:51:49.159Z,6.57
2017-12-24T12:54:17.103Z,7.40
2017-12-24T12:56:44.911Z,13.00
2017-12-24T12:59:12.688Z,9.00
2017-12-24T13:01:40.425Z,7.57
2017-12-24T13:04:08.252Z,7.60
2017-12-24T13:06:35.911Z,8.10
2017-12-24T13:09:03.751Z,8.00
2017-12-24T13:11:33.145Z,8.57
2017-12-24T13:14:01.678Z,8.80
2017-12-24T13:16:29.574Z,8.70
2017-12-24T13:18:57.360Z,8.20
2017-12-24T13:21:25.873Z,8.80
2017-12-24T13:23:53.671Z,7.57
2017-12-24T13:26:21.488Z,8.10
2017-12-24T13:28:49.332Z,8.47
2017-12-24T13:31:17.178Z,7.87
2017-12-24T13:33:44.788Z,7.60
2017-12-24T13:36:12.419Z,8.23
2017-12-24T13:38:40.303Z,6.97
2017-12-24T13:41:07.978Z,17.00
2017-12-24T13:43:35.604Z,7.73
2017-12-24T13:46:03.214Z,8.57
2017-12-24T13:48:30.874Z,6.43
2017-12-24T13:50:58.468Z,17.20
2017-12-24T13:53:26.859Z,7.17
2017-12-24T13:55:56.356Z,6.40
2017-12-24T13:58:23.976Z,7.70
2017-12-24T14:00:51.579Z,7.03
2017-12-24T14:03:19.260Z,5.40
2017-12-24T14:05:47.738Z,6.40
2017-12-24T14:08:16.127Z,6.57
2017-12-24T14:10:44.555Z,6.43
2017-12-24T14:13:12.200Z,8.23
2017-12-24T14:15:40.597Z,4.90
2017-12-24T14:18:08.226Z,6.67
2017-12-24T14:20:36.620Z,8.23
2017-12-24T14:23:04.986Z,9.63
2017-12-24T14:25:33.399Z,8.65
2017-12-24T14:28:01.017Z,9.18
2017-12-24T14:30:29.632Z,7.95
2017-12-24T14:32:58.018Z,8.38
2017-12-24T14:35:26.434Z,10.43
2017-12-24T14:37:54.084Z,8.13
2017-12-24T14:40:21.691Z,9.07
2017-12-24T14:42:49.321Z,8.48
2017-12-24T14:45:16.967Z,9.32
2017-12-24T14:47:45.592Z,10.60
2017-12-24T14:50:13.241Z,7.78
2017-12-24T14:52:40.914Z,11.00
2017-12-24T14:55:09.271Z,8.80
2017-12-24T14:57:36.951Z,8.90
2017-12-24T15:00:04.604Z,10.82
2017-12-24T15:02:32.980Z,11.27
2017-12-24T15:05:02.740Z,11.55
2017-12-24T15:07:30.354Z,12.70
2017-12-24T15:09:58.054Z,12.40
2017-12-24T15:12:25.673Z,13.77
2017-12-24T15:14:53.293Z,17.05
2017-12-24T15:17:20.882Z,14.77
2017-12-24T15:19:48.519Z,14.15
2017-12-24T15:22:16.175Z,11.65
2017-12-24T15:24:44.913Z,14.27
2017-12-24T15:27:12.566Z,14.95
2017-12-24T15:29:47.055Z,18.23
2017-12-24T15:32:14.985Z,19.48
2017-12-24T15:34:42.682Z,19.27
2017-12-24T15:37:10.292Z,23.00
2017-12-24T15:39:39.054Z,22.35
2017-12-24T15:42:07.410Z,21.85
2017-12-24T15:44:35.783Z,26.27
2017-12-24T15:47:03.477Z,22.50
2017-12-24T15:49:31.101Z,30.08
2017-12-24T15:51:58.726Z,24.23
2017-12-24T15:54:28.892Z,26.40
2017-12-24T15:56:59.160Z,29.20
2017-12-24T15:59:27.025Z,30.98
2017-12-24T16:01:55.469Z,27.62
2017-12-24T16:04:23.242Z,27.90
2017-12-24T16:06:52.131Z,29.67
2017-12-24T16:09:19.876Z,29.77
2017-12-24T16:11:47.859Z,29.60
2017-12-24T16:14:15.546Z,34.70
2017-12-24T16:16:44.692Z,37.33
2017-12-24T16:19:12.365Z,39.13
2017-12-24T16:21:41.724Z,31.25
2017-12-24T16:24:09.392Z,38.55
2017-12-24T16:26:37.053Z,36.50
2017-12-24T16:29:04.707Z,35.22
2017-12-24T16:31:32.718Z,39.97
2017-12-24T16:34:00.478Z,38.63
2017-12-24T16:36:28.139Z,38.78
2017-12-24T16:38:55.718Z,44.10
2017-12-24T16:41:23.361Z,40.63
2017-12-24T16:43:51.260Z,35.05
2017-12-24T16:46:18.962Z,44.40
2017-12-24T16:48:47.989Z,50.47
2017-12-24T16:51:15.815Z,50.38
2017-12-24T16:53:44.264Z,47.70
2017-12-24T16:56:12.879Z,46.50
2017-12-24T16:58:40.518Z,36.15
2017-12-24T17:01:08.174Z,45.67
2017-12-24T17:03:36.230Z,48.58
2017-12-24T17:06:03.853Z,48.65
2017-12-24T17:08:31.481Z,38.70
2017-12-24T17:11:00.119Z,47.10
2017-12-24T17:13:28.532Z,39.22
2017-12-24T17:15:56.171Z,43.55
2017-12-24T17:18:24.560Z,59.53
2017-12-24T17:20:52.936Z,52.72
2017-12-24T17:23:22.302Z,40.63
2017-12-24T17:25:49.932Z,37.13
2017-12-24T17:28:17.595Z,31.50
2017-12-24T17:30:45.200Z,45.60
2017-12-24T17:33:12.873Z,46.05
2017-12-24T17:35:40.484Z,44.30
2017-12-24T17:38:08.121Z,42.38
2017-12-24T17:40:35.743Z,44.13
2017-12-24T17:43:03.418Z,50.55
2017-12-24T17:45:31.056Z,47.70
2017-12-24T17:47:59.481Z,50.55
2017-12-24T17:50:27.143Z,42.95
2017-12-24T17:52:55.507Z,37.55
2017-12-24T17:55:23.152Z,52.60
2017-12-24T17:57:51.605Z,50.22
2017-12-24T18:00:19.270Z,57.62
2017-12-24T18:02:46.904Z,48.05
2017-12-24T18:05:14.539Z,54.05
2017-12-24T18:07:42.167Z,53.63
2017-12-24T18:10:09.789Z,41.05
2017-12-24T18:12:37.419Z,45.78
2017-12-24T18:15:05.036Z,46.00
2017-12-24T18:17:32.998Z,40.12
2017-12-24T18:20:05.256Z,38.53
2017-12-24T18:22:33.012Z,48.38
2017-12-24T18:25:01.375Z,35.28
2017-12-24T18:27:29.065Z,42.25
2017-12-24T18:29:56.669Z,36.80
2017-12-24T18:32:24.344Z,39.10
2017-12-24T18:34:53.795Z,44.00
2017-12-24T18:37:21.630Z,42.90
2017-12-24T18:39:49.319Z,38.45
2017-12-24T18:42:16.942Z,41.88
2017-12-24T18:44:44.622Z,39.85
2017-12-24T18:47:12.321Z,32.67
2017-12-24T18:49:39.941Z,37.67
2017-12-24T18:52:07.569Z,39.13
2017-12-24T18:54:35.934Z,42.30
2017-12-24T18:57:03.571Z,36.58
2017-12-24T18:59:31.636Z,39.15
2017-12-24T19:01:59.309Z,40.45
2017-12-24T19:04:26.976Z,34.40
2017-12-24T19:06:54.625Z,36.72
2017-12-24T19:09:22.218Z,41.65
2017-12-24T19:11:49.853Z,41.25
2017-12-24T19:14:17.456Z,33.53
2017-12-24T19:16:45.189Z,28.75
2017-12-24T19:19:12.878Z,33.40
2017-12-24T19:21:40.481Z,35.45
2017-12-24T19:24:08.141Z,32.90
2017-12-24T19:26:35.789Z,33.25
2017-12-24T19:29:04.009Z,33.10
2017-12-24T19:31:31.645Z,31.40
2017-12-24T19:33:59.257Z,34.75
2017-12-24T19:36:26.913Z,42.40
2017-12-24T19:38:54.563Z,36.10
2017-12-24T19:41:22.193Z,33.25
2017-12-24T19:43:49.835Z,34.88
2017-12-24T19:46:17.505Z,32.25
2017-12-24T19:48:45.287Z,39.47
2017-12-24T19:51:12.934Z,32.45
2017-12-24T19:53:40.549Z,34.35
2017-12-24T19:56:09.150Z,36.10
2017-12-24T19:58:36.773Z,36.80
2017-12-24T20:01:04.430Z,38.25
2017-12-24T20:03:32.032Z,38.08
2017-12-24T20:05:59.607Z,40.22
2017-12-24T20:08:27.271Z,37.67
2017-12-24T20:10:54.966Z,37.28
2017-12-24T20:13:22.651Z,41.97
2017-12-24T20:15:51.187Z,33.63
2017-12-24T20:18:18.799Z,35.50
2017-12-24T20:20:47.376Z,36.20
2017-12-24T20:23:15.740Z,33.00
2017-12-24T20:25:44.144Z,39.47
2017-12-24T20:28:11.809Z,39.53
2017-12-24T20:30:39.398Z,33.47
2017-12-24T20:33:07.035Z,36.42
2017-12-24T20:35:34.642Z,34.42
2017-12-24T20:38:02.332Z,31.30
2017-12-24T20:40:30.531Z,31.20
2017-12-24T20:42:58.484Z,28.35
2017-12-24T20:45:28.239Z,33.65
2017-12-24T20:47:56.087Z,36.85
2017-12-24T20:50:24.476Z,35.35
2017-12-24T20:52:52.095Z,44.00
2017-12-24T20:55:19.813Z,32.65
2017-12-24T20:57:47.449Z,39.78
2017-12-24T21:00:17.068Z,35.97
2017-12-24T21:02:47.965Z,40.15
2017-12-24T21:05:16.978Z,32.67
2017-12-24T21:07:44.658Z,38.08
2017-12-24T21:10:12.300Z,29.75
2017-12-24T21:12:39.930Z,33.42
2017-12-24T21:15:07.652Z,29.83
2017-12-24T21:17:36.468Z,31.98
2017-12-24T21:20:04.356Z,37.25
2017-12-24T21:22:32.793Z,31.05
2017-12-24T21:25:00.548Z,40.65
2017-12-24T21:27:31.592Z,33.20
2017-12-24T21:29:59.722Z,38.05
2017-12-24T21:32:28.934Z,37.65
2017-12-24T21:34:56.619Z,31.80
2017-12-24T21:37:24.418Z,33.28
2017-12-24T21:39:52.127Z,35.80
2017-12-24T21:42:20.289Z,31.52
2017-12-24T21:44:49.168Z,29.73
2017-12-24T21:47:17.822Z,29.30
2017-12-24T21:49:46.578Z,33.33
2017-12-24T21:52:15.030Z,31.00
2017-12-24T21:57:14.665Z,30.00
2017-12-24T21:59:42.533Z,30.15
2017-12-24T22:02:12.294Z,26.80
2017-12-24T22:04:39.917Z,33.08
2017-12-24T22:07:08.081Z,31.45
2017-12-24T22:09:36.600Z,30.88
2017-12-24T22:12:05.475Z,32.88
2017-12-24T22:14:33.280Z,29.23
2017-12-24T22:17:01.265Z,32.72
2017-12-24T22:19:29.847Z,31.15
2017-12-24T22:21:58.415Z,28.60
2017-12-24T22:24:26.045Z,27.83
2017-12-24T22:26:54.781Z,30.80
2017-12-24T22:29:22.705Z,31.42
2017-12-24T22:31:50.776Z,29.60
2017-12-24T22:34:19.429Z,30.67
2017-12-24T22:36:48.555Z,26.90
2017-12-24T22:39:16.336Z,34.42
2017-12-24T22:41:46.578Z,27.27
2017-12-24T22:44:16.673Z,33.45
2017-12-24T22:46:45.340Z,31.08
2017-12-24T22:49:14.135Z,30.30
2017-12-24T22:51:43.723Z,31.67
2017-12-24T22:54:11.551Z,40.38
2017-12-24T22:56:40.319Z,35.45
2017-12-24T22:59:11.016Z,34.17
2017-12-24T23:01:39.398Z,39.05
2017-12-24T23:04:07.338Z,43.22
2017-12-24T23:06:35.824Z,51.42
2017-12-24T23:09:05.236Z,48.87
2017-12-24T23:11:36.984Z,53.85
2017-12-24T23:14:07.764Z,52.83
2017-12-24T23:16:36.852Z,51.10
2017-12-24T23:19:06.613Z,50.47
2017-12-24T23:21:36.786Z,42.42
2017-12-24T23:24:05.576Z,44.75
2017-12-24T23:26:35.032Z,46.37
2017-12-24T23:29:02.811Z,41.75
2017-12-24T23:31:31.475Z,38.72
2017-12-24T23:33:59.145Z,37.25
2017-12-24T23:36:26.791Z,37.05
2017-12-24T23:38:54.463Z,41.55
2017-12-24T23:41:22.072Z,42.53
2017-12-24T23:43:49.663Z,43.92
2017-12-24T23:46:18.054Z,39.15
2017-12-24T23:48:45.672Z,39.65
2017-12-24T23:51:13.271Z,39.03
2017-12-24T23:53:41.626Z,37.40
2017-12-24T23:56:09.207Z,49.90
2017-12-24T23:58:36.801Z,39.47
